createdAt,value
2019-03-03T00:01:19.575Z,99582.24
2019-03-03T00:03:50.729Z,99584.21
2019-03-03T00:06:21.658Z,99581.31
2019-03-03T00:08:52.573Z,99581.42
2019-03-03T00:11:23.345Z,99573.98
2019-03-03T00:13:54.231Z,99570.27
2019-03-03T00:16:25.110Z,99562.59
2019-03-03T00:18:56.041Z,99561.88
2019-03-03T00:21:27.149Z,99562.92
2019-03-03T00:23:58.025Z,99552.87
2019-03-03T00:26:28.878Z,99548.12
2019-03-03T00:28:59.858Z,99540.35
2019-03-03T00:31:41.084Z,99540.35
2019-03-03T00:34:12.176Z,99536.95
2019-03-03T00:37:17.199Z,99527.84
2019-03-03T00:40:07.050Z,99524.11
2019-03-03T00:43:05.944Z,99518.43
2019-03-03T00:46:00.947Z,99516.76
2019-03-03T00:48:51.854Z,99509.02
2019-03-03T00:51:32.112Z,99506.73
2019-03-03T00:54:14.211Z,99503.00
2019-03-03T00:56:53.137Z,99504.03
2019-03-03T00:59:58.585Z,99504.87
2019-03-03T01:02:43.081Z,99515.72
2019-03-03T01:05:33.024Z,99518.80
2019-03-03T01:08:23.215Z,99527.47
2019-03-03T01:11:13.257Z,99532.34
2019-03-03T01:14:12.138Z,99540.40
2019-03-03T01:17:02.053Z,99540.61
2019-03-03T01:19:50.634Z,99541.15
2019-03-03T01:22:46.047Z,99544.66
2019-03-03T01:25:17.792Z,99543.63
2019-03-03T01:27:48.778Z,99546.43
2019-03-03T01:30:19.760Z,99548.70
2019-03-03T01:32:50.525Z,99549.72
2019-03-03T01:35:21.506Z,99544.25
2019-03-03T01:37:52.450Z,99538.25
2019-03-03T01:40:23.325Z,99545.30
2019-03-03T01:42:54.285Z,99542.91
2019-03-03T01:45:25.097Z,99544.66
2019-03-03T01:47:56.275Z,99535.80
2019-03-03T01:50:27.176Z,99521.63
2019-03-03T01:52:58.194Z,99511.80
2019-03-03T01:55:29.108Z,99505.89
2019-03-03T01:57:59.896Z,99495.36
2019-03-03T02:00:30.961Z,99484.98
2019-03-03T02:03:01.996Z,99487.70
2019-03-03T02:05:33.071Z,99476.21
2019-03-03T02:08:04.057Z,99472.17
2019-03-03T02:10:35.138Z,99480.13
2019-03-03T02:13:06.217Z,99480.95
2019-03-03T02:15:37.047Z,99481.29
2019-03-03T02:18:08.123Z,99492.67
2019-03-03T02:20:39.195Z,99494.22
2019-03-03T02:23:10.017Z,99498.16
2019-03-03T02:25:41.499Z,99504.56
2019-03-03T02:28:12.385Z,99502.69
2019-03-03T02:30:43.381Z,99493.48
2019-03-03T02:33:14.492Z,99485.09
2019-03-03T02:35:46.180Z,99476.10
2019-03-03T02:38:17.081Z,99477.27
2019-03-03T02:40:48.043Z,99473.53
2019-03-03T02:43:18.941Z,99474.03
2019-03-03T02:45:49.924Z,99473.53
2019-03-03T02:48:20.822Z,99473.31
2019-03-03T02:50:51.827Z,99476.33
2019-03-03T02:53:23.272Z,99477.77
2019-03-03T02:55:54.989Z,99476.32
2019-03-03T02:58:25.815Z,99463.92
2019-03-03T03:01:03.715Z,99456.15
2019-03-03T03:03:34.646Z,99450.88
2019-03-03T03:06:27.416Z,99455.11
2019-03-03T03:09:13.303Z,99453.66
2019-03-03T03:12:03.078Z,99440.92
2019-03-03T03:15:11.284Z,99441.02
2019-03-03T03:18:03.930Z,99449.09
2019-03-03T03:20:52.275Z,99443.71
2019-03-03T03:23:33.007Z,99431.20
2019-03-03T03:26:31.188Z,99431.41
2019-03-03T03:29:19.775Z,99431.52
2019-03-03T03:32:18.689Z,99424.40
2019-03-03T03:35:11.608Z,99431.95
2019-03-03T03:37:58.743Z,99422.96
2019-03-03T03:40:41.048Z,99400.83
2019-03-03T03:43:21.612Z,99399.59
2019-03-03T03:46:26.751Z,99397.41
2019-03-03T03:49:16.534Z,99397.95
2019-03-03T03:52:06.314Z,99403.73
2019-03-03T03:54:56.195Z,99399.88
2019-03-03T03:57:34.711Z,99399.15
2019-03-03T04:00:28.281Z,99396.45
2019-03-03T04:03:22.067Z,99395.94
2019-03-03T04:06:03.557Z,99402.98
2019-03-03T04:08:53.424Z,99408.66
2019-03-03T04:11:32.928Z,99407.64
2019-03-03T04:14:32.262Z,99408.80
2019-03-03T04:17:17.748Z,99403.19
2019-03-03T04:20:06.818Z,99404.96
2019-03-03T04:22:45.648Z,99404.36
2019-03-03T04:25:41.662Z,99404.97
2019-03-03T04:28:31.445Z,99399.80
2019-03-03T04:31:20.099Z,99400.95
2019-03-03T04:33:57.280Z,99410.34
2019-03-03T04:36:47.163Z,99413.87
2019-03-03T04:39:23.119Z,99416.25
2019-03-03T04:42:12.899Z,99415.21
2019-03-03T04:45:05.343Z,99410.67
2019-03-03T04:48:01.370Z,99416.98
2019-03-03T04:50:54.017Z,99420.80
2019-03-03T04:53:53.016Z,99413.45
2019-03-03T04:56:42.797Z,99418.31
2019-03-03T04:59:41.590Z,99422.97
2019-03-03T05:02:37.714Z,99414.59
2019-03-03T05:05:34.765Z,99420.69
2019-03-03T05:08:24.648Z,99416.03
2019-03-03T05:11:25.081Z,99422.88
2019-03-03T05:14:15.679Z,99430.51
2019-03-03T05:17:14.572Z,99428.87
2019-03-03T05:19:49.676Z,99423.90
2019-03-03T05:22:50.068Z,99426.67
2019-03-03T05:25:23.042Z,99410.23
2019-03-03T05:27:54.065Z,99409.52
2019-03-03T05:30:25.205Z,99406.73
2019-03-03T05:32:56.167Z,99411.27
2019-03-03T05:35:54.528Z,99392.98
2019-03-03T05:38:25.425Z,99396.39
2019-03-03T05:40:56.346Z,99392.77
2019-03-03T05:43:27.132Z,99398.36
2019-03-03T05:45:58.145Z,99393.20
2019-03-03T05:48:38.704Z,99390.52
2019-03-03T05:51:09.518Z,99394.86
2019-03-03T05:53:40.316Z,99403.41
2019-03-03T05:56:11.285Z,99410.46
2019-03-03T05:58:42.201Z,99412.12
2019-03-03T06:01:39.962Z,99412.82
2019-03-03T06:04:12.345Z,99412.64
2019-03-03T06:06:43.415Z,99409.21
2019-03-03T06:09:14.308Z,99406.11
2019-03-03T06:11:45.198Z,99400.73
2019-03-03T06:14:16.078Z,99402.51
2019-03-03T06:16:56.752Z,99408.50
2019-03-03T06:19:27.585Z,99418.63
2019-03-03T06:21:58.765Z,99419.84
2019-03-03T06:24:29.587Z,99416.23
2019-03-03T06:27:00.570Z,99418.81
2019-03-03T06:29:31.355Z,99416.34
2019-03-03T06:32:02.317Z,99411.78
2019-03-03T06:34:33.114Z,99409.22
2019-03-03T06:37:04.110Z,99417.08
2019-03-03T06:39:35.009Z,99419.45
2019-03-03T06:42:06.108Z,99421.30
2019-03-03T06:44:36.891Z,99413.55
2019-03-03T06:47:07.833Z,99426.08
2019-03-03T06:49:38.650Z,99418.42
2019-03-03T06:52:09.589Z,99414.18
2019-03-03T06:54:59.526Z,99408.59
2019-03-03T06:57:30.055Z,99401.85
2019-03-03T07:00:00.949Z,99400.72
2019-03-03T07:02:32.030Z,99392.05
2019-03-03T07:05:03.022Z,99392.24
2019-03-03T07:07:55.566Z,99396.58
2019-03-03T07:10:26.412Z,99395.53
2019-03-03T07:12:57.389Z,99403.20
2019-03-03T07:15:28.182Z,99395.83
2019-03-03T07:17:59.070Z,99409.28
2019-03-03T07:20:56.976Z,99407.41
2019-03-03T07:23:27.988Z,99418.16
2019-03-03T07:25:58.872Z,99424.45
2019-03-03T07:28:29.756Z,99421.13
2019-03-03T07:31:00.536Z,99426.19
2019-03-03T07:33:54.515Z,99434.77
2019-03-03T07:36:25.465Z,99439.90
2019-03-03T07:38:56.341Z,99442.81
2019-03-03T07:41:27.230Z,99437.09
2019-03-03T07:43:58.205Z,99442.91
2019-03-03T07:46:29.014Z,99444.87
2019-03-03T07:51:55.057Z,99445.39
2019-03-03T07:54:26.031Z,99429.13
2019-03-03T07:56:56.824Z,99429.34
2019-03-03T07:59:27.662Z,99434.39
2019-03-03T08:01:58.641Z,99434.58
2019-03-03T08:04:29.932Z,99435.88
2019-03-03T08:07:00.838Z,99436.27
2019-03-03T08:09:31.615Z,99445.91
2019-03-03T08:12:02.595Z,99447.76
2019-03-03T08:14:33.724Z,99463.75
2019-03-03T08:17:13.082Z,99454.32
2019-03-03T08:19:44.908Z,99445.06
2019-03-03T08:22:16.087Z,99446.23
2019-03-03T08:24:46.910Z,99441.31
2019-03-03T08:27:17.918Z,99434.83
2019-03-03T08:30:07.308Z,99429.34
2019-03-03T08:32:38.290Z,99426.07
2019-03-03T08:35:10.814Z,99425.09
2019-03-03T08:37:41.848Z,99429.48
2019-03-03T08:40:13.101Z,99428.42
2019-03-03T08:43:29.777Z,99432.18
2019-03-03T08:46:15.488Z,99423.03
2019-03-03T08:49:04.043Z,99426.69
2019-03-03T08:51:59.657Z,99429.45
2019-03-03T08:54:46.137Z,99423.27
2019-03-03T08:57:35.847Z,99430.58
2019-03-03T09:00:26.648Z,99432.66
2019-03-03T09:03:17.346Z,99428.92
2019-03-03T09:05:55.310Z,99432.03
2019-03-03T09:08:37.244Z,99438.47
2019-03-03T09:11:16.477Z,99439.07
2019-03-03T09:14:06.257Z,99434.41
2019-03-03T09:16:56.038Z,99439.75
2019-03-03T09:19:44.298Z,99429.47
2019-03-03T09:22:37.136Z,99433.61
2019-03-03T09:25:25.789Z,99435.77
2019-03-03T09:28:23.455Z,99427.89
2019-03-03T09:31:13.214Z,99425.28
2019-03-03T09:34:14.996Z,99430.36
2019-03-03T09:37:20.114Z,99422.34
2019-03-03T09:40:25.533Z,99418.07
2019-03-03T09:43:09.954Z,99421.97
2019-03-03T09:46:03.118Z,99419.32
2019-03-03T09:48:56.157Z,99415.34
2019-03-03T09:51:37.639Z,99409.95
2019-03-03T09:54:33.564Z,99414.83
2019-03-03T09:57:23.962Z,99412.66
2019-03-03T10:00:12.716Z,99412.22
2019-03-03T10:02:53.283Z,99423.09
2019-03-03T10:05:29.953Z,99424.00
2019-03-03T10:08:09.532Z,99421.57
2019-03-03T10:10:58.249Z,99422.63
2019-03-03T10:13:44.653Z,99428.61
2019-03-03T10:16:32.150Z,99424.73
2019-03-03T10:19:34.319Z,99439.08
2019-03-03T10:22:36.109Z,99433.15
2019-03-03T10:25:28.042Z,99433.34
2019-03-03T10:28:14.115Z,99432.51
2019-03-03T10:31:16.306Z,99428.16
2019-03-03T10:34:15.406Z,99423.44
2019-03-03T10:37:08.257Z,99425.86
2019-03-03T10:39:47.592Z,99420.97
2019-03-03T10:42:37.478Z,99424.13
2019-03-03T10:45:34.937Z,99415.09
2019-03-03T10:48:24.102Z,99414.37
2019-03-03T10:51:20.538Z,99404.30
2019-03-03T10:54:05.916Z,99410.13
2019-03-03T10:56:53.136Z,99420.27
2019-03-03T10:59:41.588Z,99404.17
2019-03-03T11:02:21.843Z,99406.84
2019-03-03T11:05:11.725Z,99399.67
2019-03-03T11:07:53.518Z,99392.49
2019-03-03T11:10:57.345Z,99381.18
2019-03-03T11:13:39.531Z,99380.34
2019-03-03T11:16:27.918Z,99378.77
2019-03-03T11:19:11.372Z,99358.00
2019-03-03T11:22:13.230Z,99347.95
2019-03-03T11:24:59.781Z,99339.22
2019-03-03T11:27:41.022Z,99346.75
2019-03-03T11:30:44.972Z,99359.79
2019-03-03T11:33:35.777Z,99358.59
2019-03-03T11:36:24.534Z,99368.77
2019-03-03T11:39:20.559Z,99362.14
2019-03-03T11:42:19.844Z,99353.72
2019-03-03T11:44:58.954Z,99337.59
2019-03-03T11:48:04.161Z,99327.09
2019-03-03T11:50:52.277Z,99330.77
2019-03-03T11:53:38.375Z,99314.25
2019-03-03T11:56:14.735Z,99313.70
2019-03-03T11:59:08.102Z,99303.08
2019-03-03T12:02:01.264Z,99303.62
2019-03-03T12:04:49.915Z,99282.56
2019-03-03T12:07:54.862Z,99286.09
2019-03-03T12:10:37.834Z,99295.22
2019-03-03T12:13:42.325Z,99285.25
2019-03-03T12:16:39.513Z,99268.01
2019-03-03T12:19:38.858Z,99249.86
2019-03-03T12:22:25.563Z,99247.50
2019-03-03T12:25:14.221Z,99240.06
2019-03-03T12:28:16.492Z,99245.98
2019-03-03T12:31:08.626Z,99236.47
2019-03-03T12:33:55.831Z,99250.02
2019-03-03T12:36:44.398Z,99262.72
2019-03-03T12:39:34.386Z,99270.54
2019-03-03T12:42:42.494Z,99266.58
2019-03-03T12:45:29.206Z,99263.96
2019-03-03T12:48:10.243Z,99262.59
2019-03-03T12:51:09.479Z,99268.56
2019-03-03T12:53:57.830Z,99265.31
2019-03-03T12:56:56.745Z,99249.92
2019-03-03T12:59:39.435Z,99247.30
2019-03-03T13:02:47.981Z,99224.23
2019-03-03T13:05:46.644Z,99213.59
2019-03-03T13:08:34.889Z,99204.41
2019-03-03T13:11:23.748Z,99195.19
2019-03-03T13:14:06.258Z,99196.86
2019-03-03T13:16:43.136Z,99193.57
2019-03-03T13:19:31.482Z,99191.30
2019-03-03T13:22:19.830Z,99191.55
2019-03-03T13:25:09.479Z,99188.55
2019-03-03T13:27:47.102Z,99182.02
2019-03-03T13:30:46.302Z,99183.66
2019-03-03T13:33:34.956Z,99181.84
2019-03-03T13:36:22.997Z,99172.64
2019-03-03T13:39:12.265Z,99167.42
2019-03-03T13:42:07.914Z,99162.98
2019-03-03T13:44:38.727Z,99156.21
2019-03-03T13:47:09.810Z,99158.34
2019-03-03T13:49:40.602Z,99139.97
2019-03-03T13:52:11.670Z,99141.59
2019-03-03T13:54:42.466Z,99126.81
2019-03-03T13:57:13.670Z,99109.23
2019-03-03T13:59:44.562Z,99108.40
2019-03-03T14:02:16.111Z,99111.16
2019-03-03T14:04:46.956Z,99115.66
2019-03-03T14:07:17.835Z,99108.88
2019-03-03T14:09:48.714Z,99097.41
2019-03-03T14:12:19.598Z,99100.38
2019-03-03T14:14:50.384Z,99092.94
2019-03-03T14:17:21.269Z,99095.39
2019-03-03T14:19:52.171Z,99102.03
2019-03-03T14:22:23.207Z,99094.34
2019-03-03T14:24:54.058Z,99096.84
2019-03-03T14:27:25.053Z,99092.86
2019-03-03T14:29:55.937Z,99082.88
2019-03-03T14:32:26.900Z,99077.59
2019-03-03T14:34:57.786Z,99078.17
2019-03-03T14:37:28.728Z,99068.43
2019-03-03T14:39:59.778Z,99062.94
2019-03-03T14:42:30.726Z,99062.25
2019-03-03T14:45:01.711Z,99053.81
2019-03-03T14:47:32.498Z,99045.94
2019-03-03T14:50:03.673Z,99053.77
2019-03-03T14:52:34.581Z,99055.80
2019-03-03T14:55:05.985Z,99057.83
2019-03-03T14:57:36.759Z,99065.13
2019-03-03T15:00:37.981Z,99059.82
2019-03-03T15:03:09.357Z,99061.20
2019-03-03T15:05:41.370Z,99065.23
2019-03-03T15:08:12.276Z,99051.84
2019-03-03T15:10:43.265Z,99042.03
2019-03-03T15:13:15.972Z,99042.46
2019-03-03T15:15:46.938Z,99040.09
2019-03-03T15:18:18.871Z,99030.09
2019-03-03T15:20:49.945Z,99017.97
2019-03-03T15:23:20.870Z,99023.58
2019-03-03T15:25:51.861Z,99025.51
2019-03-03T15:28:22.726Z,99017.39
2019-03-03T15:30:53.881Z,99019.92
2019-03-03T15:33:24.830Z,99011.08
2019-03-03T15:36:20.403Z,99002.07
2019-03-03T15:38:51.526Z,98987.16
2019-03-03T15:41:22.458Z,98979.88
2019-03-03T15:43:53.367Z,98972.53
2019-03-03T15:46:29.530Z,98972.84
2019-03-03T15:49:10.181Z,98966.07
2019-03-03T15:51:45.530Z,98975.10
2019-03-03T15:54:22.826Z,98980.41
2019-03-03T15:56:53.799Z,98986.06
2019-03-03T15:59:24.718Z,98975.68
2019-03-03T16:01:55.690Z,98961.57
2019-03-03T16:04:26.574Z,98957.26
2019-03-03T16:06:57.414Z,98947.01
2019-03-03T16:09:28.295Z,98952.37
2019-03-03T16:11:59.075Z,98958.88
2019-03-03T16:14:29.947Z,98951.34
2019-03-03T16:17:00.861Z,98946.36
2019-03-03T16:19:32.354Z,98945.22
2019-03-03T16:22:03.137Z,98938.06
2019-03-03T16:24:46.875Z,98927.73
2019-03-03T16:27:17.826Z,98934.20
2019-03-03T16:29:48.702Z,98931.03
2019-03-03T16:32:19.487Z,98925.60
2019-03-03T16:34:50.560Z,98914.67
2019-03-03T16:37:21.459Z,98911.25
2019-03-03T16:39:53.706Z,98905.91
2019-03-03T16:42:24.594Z,98899.02
2019-03-03T16:44:55.370Z,98892.95
2019-03-03T16:47:26.258Z,98896.09
2019-03-03T16:49:57.232Z,98910.19
2019-03-03T16:52:28.380Z,98904.06
2019-03-03T16:54:59.307Z,98908.34
2019-03-03T16:57:30.103Z,98907.69
2019-03-03T17:00:01.104Z,98905.36
2019-03-03T17:02:33.515Z,98911.37
2019-03-03T17:05:04.967Z,98907.16
2019-03-03T17:07:35.905Z,98911.70
2019-03-03T17:10:07.469Z,98909.92
2019-03-03T17:12:38.611Z,98902.17
2019-03-03T17:15:12.088Z,98903.76
2019-03-03T17:17:43.053Z,98896.50
2019-03-03T17:20:14.050Z,98889.09
2019-03-03T17:22:44.831Z,98886.77
2019-03-03T17:25:17.447Z,98884.17
2019-03-03T17:27:48.338Z,98882.59
2019-03-03T17:30:20.810Z,98871.04
2019-03-03T17:32:51.755Z,98870.10
2019-03-03T17:35:22.803Z,98862.18
2019-03-03T17:37:53.764Z,98859.42
2019-03-03T17:40:24.660Z,98854.20
2019-03-03T17:42:55.648Z,98841.09
2019-03-03T17:45:26.714Z,98845.70
2019-03-03T17:47:57.534Z,98838.88
2019-03-03T17:50:28.518Z,98833.50
2019-03-03T17:52:59.622Z,98824.91
2019-03-03T17:55:30.397Z,98820.34
2019-03-03T17:58:01.863Z,98822.02
2019-03-03T18:00:34.686Z,98826.45
2019-03-03T18:03:05.702Z,98823.05
2019-03-03T18:05:36.626Z,98820.67
2019-03-03T18:08:07.870Z,98822.53
2019-03-03T18:10:38.794Z,98821.54
2019-03-03T18:13:09.681Z,98812.39
2019-03-03T18:15:40.668Z,98810.13
2019-03-03T18:18:11.459Z,98806.41
2019-03-03T18:20:42.345Z,98812.70
2019-03-03T18:23:14.342Z,98807.88
2019-03-03T18:25:45.413Z,98812.78
2019-03-03T18:28:16.338Z,98799.52
2019-03-03T18:30:47.222Z,98799.88
2019-03-03T18:33:18.205Z,98784.89
2019-03-03T18:35:49.203Z,98768.42
2019-03-03T18:38:20.245Z,98766.25
2019-03-03T18:40:51.238Z,98765.89
2019-03-03T18:43:22.234Z,98762.65
2019-03-03T18:45:53.204Z,98766.88
2019-03-03T18:48:23.905Z,98765.25
2019-03-03T18:50:54.674Z,98759.27
2019-03-03T18:53:26.507Z,98756.94
2019-03-03T18:55:57.685Z,98752.97
2019-03-03T18:58:29.591Z,98756.02
2019-03-03T19:01:00.768Z,98762.05
2019-03-03T19:03:31.886Z,98757.02
2019-03-03T19:06:02.887Z,98738.80
2019-03-03T19:08:33.769Z,98737.02
2019-03-03T19:11:05.083Z,98737.92
2019-03-03T19:13:36.055Z,98729.68
2019-03-03T19:16:31.642Z,98721.88
2019-03-03T19:19:06.598Z,98712.47
2019-03-03T19:21:37.633Z,98709.81
2019-03-03T19:24:08.486Z,98707.53
2019-03-03T19:26:39.558Z,98700.45
2019-03-03T19:29:10.550Z,98692.30
2019-03-03T19:31:41.536Z,98690.58
2019-03-03T19:34:12.426Z,98692.65
2019-03-03T19:36:43.610Z,98694.17
2019-03-03T19:39:14.511Z,98701.59
2019-03-03T19:41:45.394Z,98698.22
2019-03-03T19:44:17.638Z,98694.70
2019-03-03T19:46:48.469Z,98690.55
2019-03-03T19:49:19.246Z,98678.27
2019-03-03T19:51:50.343Z,98678.00
2019-03-03T19:54:21.373Z,98679.78
2019-03-03T19:56:52.124Z,98676.23
2019-03-03T19:59:23.317Z,98667.73
2019-03-03T20:01:54.098Z,98667.36
2019-03-03T20:04:25.092Z,98658.78
2019-03-03T20:06:55.987Z,98653.66
2019-03-03T20:09:26.957Z,98648.09
2019-03-03T20:11:57.843Z,98645.30
2019-03-03T20:14:28.886Z,98646.06
2019-03-03T20:16:59.839Z,98651.45
2019-03-03T20:19:30.607Z,98656.61
2019-03-03T20:22:01.407Z,98652.84
2019-03-03T20:24:32.398Z,98649.03
2019-03-03T20:27:03.183Z,98638.92
2019-03-03T20:29:34.147Z,98643.52
2019-03-03T20:32:05.147Z,98642.59
2019-03-03T20:34:36.145Z,98644.28
2019-03-03T20:37:08.041Z,98642.45
2019-03-03T20:39:39.010Z,98638.19
2019-03-03T20:42:11.270Z,98625.67
2019-03-03T20:44:42.242Z,98620.91
2019-03-03T20:47:13.050Z,98625.17
2019-03-03T20:49:43.837Z,98621.93
2019-03-03T20:52:14.697Z,98626.00
2019-03-03T20:54:45.597Z,98626.64
2019-03-03T20:57:16.374Z,98625.48
2019-03-03T20:59:46.966Z,98616.31
2019-03-03T21:02:18.174Z,98610.48
2019-03-03T21:04:49.038Z,98613.84
2019-03-03T21:07:19.583Z,98613.11
2019-03-03T21:09:50.560Z,98606.47
2019-03-03T21:12:21.495Z,98597.24
2019-03-03T21:14:52.491Z,98596.55
2019-03-03T21:17:23.271Z,98592.07
2019-03-03T21:19:54.156Z,98586.70
2019-03-03T21:22:25.084Z,98581.32
2019-03-03T21:24:56.037Z,98578.01
2019-03-03T21:27:26.824Z,98573.25
2019-03-03T21:29:57.807Z,98569.87
2019-03-03T21:32:28.596Z,98568.90
2019-03-03T21:34:59.588Z,98552.02
2019-03-03T21:37:30.372Z,98544.91
2019-03-03T21:40:01.377Z,98548.81
2019-03-03T21:42:33.898Z,98545.42
2019-03-03T21:45:05.300Z,98532.79
2019-03-03T21:47:37.299Z,98523.88
2019-03-03T21:50:09.909Z,98521.31
2019-03-03T21:52:42.828Z,98527.11
2019-03-03T21:55:15.263Z,98523.52
2019-03-03T21:57:46.081Z,98523.98
2019-03-03T22:00:36.741Z,98514.34
2019-03-03T22:03:08.009Z,98509.03
2019-03-03T22:05:38.814Z,98509.62
2019-03-03T22:08:09.694Z,98503.45
2019-03-03T22:10:40.593Z,98491.40
2019-03-03T22:13:12.909Z,98491.59
2019-03-03T22:15:43.897Z,98488.66
2019-03-03T22:18:14.800Z,98485.96
2019-03-03T22:20:46.806Z,98470.75
2019-03-03T22:23:17.593Z,98468.70
2019-03-03T22:25:48.579Z,98460.22
2019-03-03T22:28:19.753Z,98446.67
2019-03-03T22:30:50.666Z,98445.48
2019-03-03T22:33:21.540Z,98442.91
2019-03-03T22:35:52.581Z,98428.84
2019-03-03T22:38:23.630Z,98433.23
2019-03-03T22:40:54.561Z,98416.88
2019-03-03T22:43:25.405Z,98408.34
2019-03-03T22:45:56.378Z,98406.52
2019-03-03T22:48:27.161Z,98407.85
2019-03-03T22:50:58.142Z,98402.48
2019-03-03T22:53:28.941Z,98395.62
2019-03-03T22:55:59.829Z,98385.59
2019-03-03T22:58:30.913Z,98373.82
2019-03-03T23:01:17.326Z,98368.02
2019-03-03T23:04:06.501Z,98357.75
2019-03-03T23:06:42.032Z,98348.03
2019-03-03T23:09:47.625Z,98350.80
2019-03-03T23:13:08.967Z,98350.24
2019-03-03T23:16:23.982Z,98339.15
2019-03-03T23:19:28.321Z,98329.47
2019-03-03T23:22:28.120Z,98337.41
2019-03-03T23:25:49.440Z,98329.91
2019-03-03T23:28:21.915Z,98326.91
2019-03-03T23:30:53.840Z,98320.08
2019-03-03T23:33:24.721Z,98321.62
2019-03-03T23:35:56.421Z,98313.68
2019-03-03T23:38:27.298Z,98310.88
2019-03-03T23:40:58.578Z,98305.20
2019-03-03T23:43:29.436Z,98307.05
2019-03-03T23:46:00.425Z,98302.51
2019-03-03T23:48:31.318Z,98295.08
2019-03-03T23:51:02.161Z,98288.77
2019-03-03T23:53:32.951Z,98281.39
2019-03-03T23:56:04.056Z,98287.78
2019-03-03T23:58:35.133Z,98284.23
